Time;durP1;ratioP1;P1;durP2;ratioP2;P2;SDS_P1;SDS_P2;PMS_P1;PMS_P2;Temp;Humidity;BMP_temperature;BMP_pressure;BME280_temperature;BME280_humidity;BME280_pressure;Samples;Min_cycle;Max_cycle;Signal;HPM_P1;HPM_P2
2022/12/25 00:01:39;;;;;;;3.10;1.58;;;;;;;8.46;63.74;96525.66;5135871;27;20039;-63
2022/12/25 00:04:10;;;;;;;3.08;1.90;;;;;;;8.42;63.92;96524.03;5135842;27;20071;-63
2022/12/25 00:06:38;;;;;;;3.00;1.60;;;;;;;8.44;63.81;96531.81;5135787;27;20047;-64
2022/12/25 00:09:05;;;;;;;5.45;2.05;;;;;;;8.43;64.15;96533.56;5135822;27;20480;-64
2022/12/25 00:11:36;;;;;;;3.72;1.45;;;;;;;8.43;63.97;96538.75;5135720;27;20079;-61
2022/12/25 00:14:04;;;;;;;4.20;1.95;;;;;;;8.47;63.91;96547.38;5135695;27;20039;-65
2022/12/25 00:16:35;;;;;;;12.82;4.65;;;;;;;8.49;63.74;96562.97;5135593;27;20043;-63
2022/12/25 00:19:03;;;;;;;7.53;2.78;;;;;;;8.48;63.70;96551.66;5135587;27;20096;-63
2022/12/25 00:21:32;;;;;;;4.68;2.13;;;;;;;8.52;63.52;96558.50;5135718;27;20043;-64
2022/12/25 00:24:00;;;;;;;1.70;1.42;;;;;;;8.51;63.38;96563.75;5135374;27;20059;-64
2022/12/25 00:26:34;;;;;;;5.55;2.25;;;;;;;8.54;63.50;96571.53;5135718;27;20076;-61
2022/12/25 00:29:03;;;;;;;7.55;1.90;;;;;;;8.52;64.02;96573.31;5135222;27;20043;-64
2022/12/25 00:31:40;;;;;;;2.88;1.85;;;;;;;8.48;64.19;96575.13;5135330;27;20043;-62
2022/12/25 00:34:11;;;;;;;3.67;2.05;;;;;;;8.49;64.15;96573.38;5135247;27;20082;-63
2022/12/25 00:36:43;;;;;;;3.85;1.92;;;;;;;8.46;64.10;96569.97;5135228;27;20043;-62
2022/12/25 00:39:13;;;;;;;5.93;2.42;;;;;;;8.41;64.55;96578.81;5135070;27;20055;-64
2022/12/25 00:44:35;;;;;;;3.72;1.95;;;;;;;8.37;64.80;96582.41;5134853;27;20058;-62
2022/12/25 00:47:03;;;;;;;2.78;1.77;;;;;;;8.40;64.13;96585.78;5134003;27;20043;-61
2022/12/25 00:49:31;;;;;;;5.00;1.88;;;;;;;8.47;64.37;96594.28;5134979;27;20411;-64
2022/12/25 00:52:00;;;;;;;3.85;2.20;;;;;;;8.46;64.22;96601.25;5135017;27;20122;-64
2022/12/25 00:54:28;;;;;;;5.55;2.17;;;;;;;8.42;64.17;96588.34;5135146;27;20071;-64
2022/12/25 00:57:03;;;;;;;3.55;2.13;;;;;;;8.37;64.71;96595.44;5134740;27;20043;-63
2022/12/25 00:59:36;;;;;;;3.13;1.98;;;;;;;8.37;64.39;96601.50;5134825;27;20053;-62
2022/12/25 01:04:44;;;;;;;7.38;2.38;;;;;;;8.37;63.29;96611.09;5133581;27;20534;-63
2022/12/25 01:07:17;;;;;;;3.17;2.05;;;;;;;8.34;63.62;96602.44;5134429;27;20050;-62
2022/12/25 01:12:34;;;;;;;3.22;2.17;;;;;;;8.34;63.48;96614.66;5134721;27;20412;-62
2022/12/25 01:15:11;;;;;;;2.60;2.05;;;;;;;8.25;63.27;96620.09;5134473;27;20552;-64
2022/12/25 01:17:38;;;;;;;3.40;2.28;;;;;;;8.23;62.53;96609.72;5134339;27;20110;-63
2022/12/25 01:20:09;;;;;;;5.95;2.45;;;;;;;8.21;62.66;96630.59;5134399;27;20050;-63
2022/12/25 01:22:37;;;;;;;4.07;2.05;;;;;;;8.16;62.98;96636.84;5134460;27;20492;-63
2022/12/25 01:25:05;;;;;;;4.07;2.10;;;;;;;8.16;63.07;96624.66;5134187;27;20134;-64
2022/12/25 01:27:34;;;;;;;3.53;2.30;;;;;;;8.25;62.64;96627.94;5134476;27;20373;-63
2022/12/25 01:30:02;;;;;;;3.88;2.58;;;;;;;8.25;62.66;96620.09;5134431;27;20043;-62
2022/12/25 01:32:34;;;;;;;3.75;2.33;;;;;;;8.20;62.69;96615.88;5134227;27;20100;-62
2022/12/25 01:35:08;;;;;;;4.00;2.08;;;;;;;8.20;62.54;96615.00;5134187;27;20039;-64
2022/12/25 01:37:36;;;;;;;3.67;1.83;;;;;;;8.27;62.21;96607.88;5134012;27;20100;-65
2022/12/25 01:40:04;;;;;;;5.30;2.45;;;;;;;8.31;61.96;96605.13;5134083;27;20043;-64
2022/12/25 01:42:32;;;;;;;5.18;2.65;;;;;;;8.26;62.19;96601.81;5134250;27;20047;-62
2022/12/25 01:45:46;;;;;;;4.78;2.80;;;;;;;8.29;62.04;96612.16;5134095;27;20381;-65
2022/12/25 01:48:19;;;;;;;5.57;2.60;;;;;;;8.29;61.90;96606.09;5091293;28;20125;-65
2022/12/25 01:50:54;;;;;;;4.78;2.33;;;;;;;8.31;62.13;96618.16;5126297;27;20127;-65
2022/12/25 01:53:23;;;;;;;3.30;2.38;;;;;;;8.33;61.41;96605.09;5134018;28;20094;-64
2022/12/25 01:55:54;;;;;;;3.92;2.00;;;;;;;8.36;61.40;96606.78;5134001;28;20043;-64
2022/12/25 01:58:22;;;;;;;3.90;2.38;;;;;;;8.40;61.42;96617.06;5135122;27;20047;-63
2022/12/25 02:00:50;;;;;;;5.47;1.92;;;;;;;8.36;61.53;96609.38;5138295;27;20407;-63
2022/12/25 02:03:20;;;;;;;4.10;2.17;;;;;;;8.30;61.66;96603.44;5138181;27;20085;-62
2022/12/25 02:05:49;;;;;;;3.17;2.03;;;;;;;8.29;61.60;96606.09;5138381;27;20039;-63
2022/12/25 02:08:19;;;;;;;3.40;1.90;;;;;;;8.39;61.09;96606.66;5138207;27;20047;-64
2022/12/25 02:10:47;;;;;;;5.03;2.80;;;;;;;8.45;60.62;96611.72;5138116;27;20051;-63
2022/12/25 02:13:16;;;;;;;3.17;2.00;;;;;;;8.39;61.07;96598.84;5138181;27;20043;-63
2022/12/25 02:15:53;;;;;;;3.77;1.97;;;;;;;8.40;60.72;96604.03;5137963;27;20073;-64
2022/12/25 02:18:34;;;;;;;3.33;2.05;;;;;;;8.38;60.74;96604.97;5137948;27;20324;-64
2022/12/25 02:21:23;;;;;;;6.63;1.98;;;;;;;8.26;61.33;96594.00;5137840;27;20070;-63
2022/12/25 02:24:41;;;;;;;4.90;1.77;;;;;;;8.30;60.83;96590.41;5137494;27;20043;-63
2022/12/25 02:27:22;;;;;;;5.38;2.72;;;;;;;8.42;60.09;96583.13;5137855;27;20424;-64
2022/12/25 02:29:58;;;;;;;3.80;2.35;;;;;;;8.51;59.88;96585.47;5137753;27;20043;-62
2022/12/25 02:32:30;;;;;;;4.45;2.15;;;;;;;8.53;59.96;96593.25;5137701;27;20126;-64
2022/12/25 02:35:03;;;;;;;4.50;2.50;;;;;;;8.50;60.27;96598.56;5137590;27;20047;-64
2022/12/25 02:37:38;;;;;;;5.25;1.98;;;;;;;8.50;59.99;96601.16;5137558;27;20043;-62
2022/12/25 02:40:09;;;;;;;5.57;2.88;;;;;;;8.46;60.49;96603.84;5137499;27;20095;-65
2022/12/25 03:07:57;;;;;;;5.78;3.35;;;;;;;8.37;61.09;96598.91;5137152;27;20054;-63
2022/12/25 03:13:18;;;;;;;5.75;2.15;;;;;;;8.36;60.75;96598.97;5137045;27;20049;-63
2022/12/25 03:18:46;;;;;;;2.55;2.15;;;;;;;8.33;60.58;96592.94;5053571;28;20049;-65
2022/12/25 03:26:55;;;;;;;3.35;2.08;;;;;;;8.32;60.21;96599.06;5102336;27;20050;-65
2022/12/25 03:32:17;;;;;;;7.22;2.00;;;;;;;8.24;60.09;96598.38;5136666;27;20399;-64
2022/12/25 04:36:14;;;;;;;6.80;3.78;;;;;;;7.83;62.56;96711.47;5135366;27;20054;-64
2022/12/25 04:38:43;;;;;;;4.25;3.00;;;;;;;7.76;63.10;96715.09;5135192;27;20051;-64
2022/12/25 04:41:13;;;;;;;6.60;4.00;;;;;;;7.73;63.22;96722.16;5135219;27;20054;-64
2022/12/25 04:43:40;;;;;;;7.22;3.38;;;;;;;7.74;63.21;96723.84;5134850;27;20150;-64
2022/12/25 04:46:08;;;;;;;8.57;3.85;;;;;;;7.73;62.62;96722.16;5135049;27;20126;-62
2022/12/25 04:48:36;;;;;;;8.02;3.35;;;;;;;7.68;62.66;96717.06;5135064;27;20100;-63
2022/12/25 04:51:14;;;;;;;6.40;3.47;;;;;;;7.65;62.66;96724.94;5134944;27;20083;-64
2022/12/25 04:53:41;;;;;;;4.50;3.30;;;;;;;7.62;62.68;96723.25;5135026;27;20488;-64
2022/12/25 04:56:08;;;;;;;3.22;2.08;;;;;;;7.56;62.13;96724.22;5134974;27;20065;-64
2022/12/25 04:58:37;;;;;;;4.10;2.60;;;;;;;7.57;61.49;96719.91;5134834;27;20043;-62
2022/12/25 05:01:05;;;;;;;6.22;2.63;;;;;;;7.57;61.39;96720.75;5134713;27;20140;-62
2022/12/25 05:03:33;;;;;;;5.80;3.13;;;;;;;7.59;60.99;96729.38;5134732;27;20050;-63
2022/12/25 05:06:01;;;;;;;5.57;3.45;;;;;;;7.66;60.45;96724.91;5134594;27;20134;-63
2022/12/25 05:08:29;;;;;;;3.92;2.30;;;;;;;7.64;60.24;96729.28;5134625;27;20125;-63
2022/12/25 05:10:56;;;;;;;5.68;2.65;;;;;;;7.62;59.72;96725.88;5134566;27;20564;-64
2022/12/25 05:13:24;;;;;;;4.75;2.80;;;;;;;7.65;59.80;96738.78;5134577;27;20503;-64
2022/12/25 05:15:52;;;;;;;3.25;2.22;;;;;;;7.64;59.98;96737.09;5134538;27;20043;-64
2022/12/25 05:18:19;;;;;;;5.10;2.05;;;;;;;7.66;60.10;96730.09;5134464;27;20119;-63
2022/12/25 05:20:53;;;;;;;4.10;2.00;;;;;;;7.68;59.61;96728.31;5134515;27;20099;-63
2022/12/25 05:23:20;;;;;;;2.95;2.00;;;;;;;7.64;60.04;96720.59;5134430;27;20043;-63
2022/12/25 05:25:47;;;;;;;3.25;2.10;;;;;;;7.70;59.39;96721.31;5134329;27;20061;-63
2022/12/25 05:28:14;;;;;;;2.83;1.90;;;;;;;7.69;59.29;96723.97;5134332;27;20043;-63
2022/12/25 05:30:41;;;;;;;4.00;2.30;;;;;;;7.66;59.59;96727.50;5134229;27;20111;-64
2022/12/25 05:33:11;;;;;;;2.75;1.95;;;;;;;7.67;59.38;96724.00;5133629;27;20609;-62
2022/12/25 05:35:38;;;;;;;4.07;2.10;;;;;;;7.68;59.77;96722.25;5134263;27;20126;-62
2022/12/25 05:38:07;;;;;;;4.00;2.03;;;;;;;7.73;59.22;96715.19;5134224;27;20130;-61
2022/12/25 05:40:35;;;;;;;3.75;1.60;;;;;;;7.75;58.97;96731.63;5134173;27;20077;-61
2022/12/25 05:43:02;;;;;;;4.43;2.10;;;;;;;7.71;59.27;96730.00;5134071;27;20082;-62
2022/12/25 05:45:29;;;;;;;4.32;1.67;;;;;;;7.74;59.19;96734.28;5133878;27;20055;-64
2022/12/25 05:47:56;;;;;;;3.80;1.80;;;;;;;7.74;59.04;96745.56;5134150;27;20047;-63
2022/12/25 05:50:25;;;;;;;4.80;1.90;;;;;;;7.74;59.26;96737.75;5134089;27;20051;-63
2022/12/25 05:52:52;;;;;;;3.95;1.90;;;;;;;7.73;59.25;96753.41;5134089;27;20051;-63
2022/12/25 05:55:19;;;;;;;2.47;1.80;;;;;;;7.75;58.90;96752.47;5133977;27;20051;-62
2022/12/25 05:57:46;;;;;;;2.47;1.55;;;;;;;7.81;58.57;96762.75;5133896;28;20382;-63
2022/12/25 06:00:14;;;;;;;2.10;1.52;;;;;;;7.78;58.60;96770.63;5133891;28;20047;-63
2022/12/25 06:02:41;;;;;;;3.38;1.90;;;;;;;7.79;58.63;96772.34;5133913;28;20404;-62
2022/12/25 06:05:12;;;;;;;2.78;1.65;;;;;;;7.82;58.34;96777.47;5133786;28;20481;-63
2022/12/25 06:07:41;;;;;;;3.45;1.50;;;;;;;7.81;58.52;96780.09;5133883;28;20051;-63
2022/12/25 06:10:09;;;;;;;7.25;1.75;;;;;;;7.80;58.29;96792.25;5133892;28;20047;-63
2022/12/25 06:12:36;;;;;;;4.07;1.98;;;;;;;7.84;58.52;96798.28;5133783;28;20069;-62
2022/12/25 06:15:04;;;;;;;3.53;1.88;;;;;;;7.87;58.61;96805.16;5133901;28;20050;-64
2022/12/25 06:17:31;;;;;;;2.70;2.10;;;;;;;7.86;58.24;96809.53;5133876;28;20043;-62
2022/12/25 06:19:58;;;;;;;5.18;1.77;;;;;;;7.93;57.93;96811.09;5133906;28;20382;-63
2022/12/25 06:22:29;;;;;;;2.85;1.67;;;;;;;7.96;58.29;96810.16;5133871;28;20500;-61
2022/12/25 06:24:59;;;;;;;5.63;1.85;;;;;;;8.03;57.81;96808.25;5133955;28;20051;-63
2022/12/25 06:27:27;;;;;;;4.15;1.77;;;;;;;8.32;57.65;96823.22;5133739;28;20450;-64
2022/12/25 06:29:55;;;;;;;5.28;1.73;;;;;;;9.25;55.79;96823.47;5133711;28;20140;-63
2022/12/25 06:32:22;;;;;;;3.30;1.80;;;;;;;10.42;52.47;96826.03;5133702;28;20104;-62
2022/12/25 06:34:50;;;;;;;4.07;1.73;;;;;;;11.40;49.04;96816.59;5133662;28;20077;-64
2022/12/25 06:37:18;;;;;;;3.00;1.48;;;;;;;12.19;47.43;96836.34;5133675;28;20039;-62
2022/12/25 06:39:46;;;;;;;4.20;1.70;;;;;;;12.97;45.30;96827.94;5133543;28;20057;-65
2022/12/25 06:42:15;;;;;;;4.60;2.17;;;;;;;13.62;42.95;96819.00;5133486;28;20047;-64
2022/12/25 06:44:46;;;;;;;4.45;2.03;;;;;;;13.85;42.63;96813.59;5135020;27;20100;-63
2022/12/25 06:47:16;;;;;;;;;;;;;;;14.12;42.05;96829.84;5137905;27;20047;-62
2022/12/25 06:49:43;;;;;;;4.10;2.13;;;;;;;14.78;41.20;96829.34;5137275;27;19969;-63
2022/12/25 06:52:10;;;;;;;3.47;1.85;;;;;;;15.49;39.32;96835.38;5137335;27;20066;-63
2022/12/25 06:54:38;;;;;;;2.90;1.95;;;;;;;15.97;38.04;96836.38;5137273;27;20053;-63
2022/12/25 06:57:05;;;;;;;4.53;2.00;;;;;;;16.03;38.01;96830.75;5137280;27;20078;-63
2022/12/25 06:59:34;;;;;;;3.97;2.20;;;;;;;16.75;36.47;96834.66;5137162;27;20054;-66
2022/12/25 07:02:03;;;;;;;2.83;1.80;;;;;;;17.63;35.20;96819.78;5137175;27;20046;-64
2022/12/25 07:04:35;;;;;;;3.78;2.78;;;;;;;17.47;34.93;96833.97;5136999;27;20408;-64
2022/12/25 07:07:03;;;;;;;4.07;1.85;;;;;;;17.28;35.04;96827.13;5137123;27;20043;-65
2022/12/25 07:09:30;;;;;;;3.10;1.80;;;;;;;16.71;36.07;96828.72;5136935;27;20043;-62
2022/12/25 07:12:04;;;;;;;2.60;1.63;;;;;;;17.03;36.04;96833.03;5136963;27;20054;-64
2022/12/25 07:14:34;;;;;;;2.42;1.60;;;;;;;17.48;35.45;96838.28;5136950;27;20047;-65
2022/12/25 07:17:04;;;;;;;1.80;1.65;;;;;;;17.93;34.37;96842.59;5136909;27;20100;-63
2022/12/25 07:19:36;;;;;;;3.33;1.98;;;;;;;18.22;33.84;96845.25;5136753;27;20047;-63
2022/12/25 07:22:13;;;;;;;4.57;1.92;;;;;;;18.18;34.24;96846.34;5136737;27;20039;-63
2022/12/25 07:24:42;;;;;;;5.53;1.85;;;;;;;18.47;32.89;96854.22;5136625;27;20134;-66
2022/12/25 07:27:11;;;;;;;4.15;2.05;;;;;;;18.76;32.86;96859.41;5136630;27;20588;-66
2022/12/25 07:29:42;;;;;;;3.10;1.65;;;;;;;18.72;33.59;96859.72;5136603;27;20050;-63
2022/12/25 07:32:11;;;;;;;2.67;1.73;;;;;;;18.64;33.26;96870.81;5136541;27;20054;-61
2022/12/25 07:34:38;;;;;;;5.38;1.90;;;;;;;18.47;33.81;96863.97;5136641;27;20043;-62
2022/12/25 07:37:06;;;;;;;2.28;1.77;;;;;;;18.66;33.51;96863.63;5136753;27;20062;-63
2022/12/25 07:39:39;;;;;;;3.60;1.55;;;;;;;19.09;32.40;96873.19;5136558;27;20424;-60
2022/12/25 07:42:12;;;;;;;3.72;1.88;;;;;;;19.16;32.74;96887.72;5136340;27;20400;-62
2022/12/25 07:44:40;;;;;;;3.88;1.45;;;;;;;19.18;32.96;96884.97;5135920;27;20112;-65
2022/12/25 07:47:07;;;;;;;3.17;1.92;;;;;;;19.72;31.59;96885.75;5136264;27;20054;-63
2022/12/25 07:49:37;;;;;;;3.20;2.13;;;;;;;19.64;31.98;96882.75;5136344;27;20043;-62
2022/12/25 07:52:04;;;;;;;2.80;1.80;;;;;;;19.83;31.83;96885.81;5136169;27;20047;-63
2022/12/25 07:54:31;;;;;;;3.80;1.80;;;;;;;20.11;31.05;96888.38;5136219;27;20058;-65
2022/12/25 07:56:59;;;;;;;2.75;1.90;;;;;;;19.69;31.08;96892.09;5135618;27;20409;-64
2022/12/25 07:59:27;;;;;;;8.25;2.13;;;;;;;20.06;31.35;96898.47;5136228;27;20044;-62
2022/12/25 08:01:56;;;;;;;2.65;1.42;;;;;;;20.51;30.14;96894.41;5136045;27;20151;-62
2022/12/25 08:04:24;;;;;;;3.03;1.55;;;;;;;21.03;30.06;96887.06;5135817;27;20073;-64
2022/12/25 08:06:53;;;;;;;2.60;1.60;;;;;;;19.90;30.89;96914.59;5135791;27;20083;-64
2022/12/25 08:09:21;;;;;;;2.58;1.83;;;;;;;19.54;30.98;96906.44;5135830;27;20049;-63
2022/12/25 08:11:49;;;;;;;3.13;1.92;;;;;;;19.65;31.88;96924.25;5135796;27;20112;-64
2022/12/25 08:14:18;;;;;;;4.53;2.03;;;;;;;19.09;32.33;96933.31;5135796;27;20042;-63
2022/12/25 08:16:45;;;;;;;3.22;1.83;;;;;;;19.40;31.78;96933.91;5135653;27;20047;-63
2022/12/25 08:19:13;;;;;;;3.15;1.80;;;;;;;19.57;31.81;96941.53;5135814;27;20039;-63
2022/12/25 08:21:42;;;;;;;5.70;1.70;;;;;;;19.19;32.39;96937.91;5135632;27;20047;-63
2022/12/25 08:24:11;;;;;;;5.03;1.88;;;;;;;19.04;32.96;96945.03;5135444;27;20054;-63
2022/12/25 08:26:40;;;;;;;4.65;1.67;;;;;;;18.84;32.03;96938.38;5135539;27;20161;-62
2022/12/25 08:29:08;;;;;;;3.13;1.50;;;;;;;18.78;33.03;96950.25;5135504;27;20130;-64
2022/12/25 08:31:35;;;;;;;1.98;1.33;;;;;;;18.58;32.92;96954.19;5135390;27;20071;-63
2022/12/25 08:34:04;;;;;;;3.25;1.58;;;;;;;18.19;33.68;96961.91;5135238;27;20047;-64
2022/12/25 08:36:33;;;;;;;3.03;1.75;;;;;;;18.05;33.23;96970.66;5135288;27;20054;-63
2022/12/25 08:39:01;;;;;;;27.67;4.10;;;;;;;17.88;34.77;96964.59;5135241;27;20111;-61
2022/12/25 08:41:35;;;;;;;5.97;2.20;;;;;;;17.55;35.00;96974.50;5135054;27;20047;-63
2022/12/25 08:44:03;;;;;;;2.90;2.00;;;;;;;17.44;35.65;96969.00;5134843;27;20104;-62
2022/12/25 08:46:31;;;;;;;5.78;2.38;;;;;;;17.55;34.88;96979.78;5135102;27;20423;-64
2022/12/25 08:48:59;;;;;;;4.90;1.63;;;;;;;17.00;35.90;96983.81;5134990;27;20046;-64
2022/12/25 08:51:27;;;;;;;2.42;1.33;;;;;;;16.21;37.27;96976.69;5134914;27;20043;-64
2022/12/25 08:53:59;;;;;;;2.67;1.60;;;;;;;15.93;37.96;96975.50;5134974;27;20066;-63
2022/12/25 08:56:29;;;;;;;2.60;1.67;;;;;;;15.87;38.60;96962.63;5134893;27;20090;-62
2022/12/25 08:58:59;;;;;;;2.90;2.08;;;;;;;15.68;38.25;96973.28;5134868;27;20408;-63
2022/12/25 09:01:27;;;;;;;4.82;2.15;;;;;;;15.86;38.87;96969.69;5134846;27;20069;-65
2022/12/25 09:03:55;;;;;;;8.07;2.92;;;;;;;15.81;38.91;96971.72;5134766;27;20043;-63
2022/12/25 09:06:26;;;;;;;6.00;2.17;;;;;;;15.72;39.10;96970.41;5134642;27;20090;-63
2022/12/25 09:08:53;;;;;;;3.70;2.00;;;;;;;15.30;39.77;96972.53;5133853;27;20054;-61
2022/12/25 09:11:20;;;;;;;3.85;1.80;;;;;;;15.19;39.75;96986.22;5134593;27;20039;-63
2022/12/25 09:13:53;;;;;;;3.65;1.75;;;;;;;14.52;40.78;96973.59;5134622;27;20039;-62
2022/12/25 09:16:23;;;;;;;4.80;1.83;;;;;;;14.25;42.13;96963.44;5134526;27;20126;-61
2022/12/25 09:18:54;;;;;;;2.80;1.73;;;;;;;14.01;41.53;96964.50;5134444;27;20382;-62
2022/12/25 09:21:21;;;;;;;4.07;2.22;;;;;;;13.95;43.10;96964.75;5134358;27;20531;-62
2022/12/25 09:23:49;;;;;;;1.92;1.40;;;;;;;13.61;42.62;96967.09;5134427;27;20047;-61
2022/12/25 09:26:21;;;;;;;1.88;1.25;;;;;;;13.21;42.92;96958.25;5134260;27;20051;-64
2022/12/25 09:28:49;;;;;;;5.10;1.65;;;;;;;13.25;43.91;96957.22;5134305;27;20039;-64
2022/12/25 09:31:17;;;;;;;4.45;1.70;;;;;;;13.23;43.21;96946.78;5134294;27;20058;-64
2022/12/25 09:33:48;;;;;;;3.35;1.60;;;;;;;13.05;43.52;96952.78;5134217;27;20043;-62
2022/12/25 09:36:15;;;;;;;3.63;1.63;;;;;;;13.04;43.31;96961.59;5134335;27;20050;-62
2022/12/25 09:38:44;;;;;;;4.18;2.10;;;;;;;12.95;43.72;96965.47;5134175;27;20073;-63
2022/12/25 09:41:17;;;;;;;3.00;1.40;;;;;;;12.97;43.26;96971.50;5134146;27;20054;-61
2022/12/25 09:43:49;;;;;;;1.77;1.42;;;;;;;12.89;44.26;96983.16;5133941;27;20059;-61
2022/12/25 09:46:20;;;;;;;2.33;1.70;;;;;;;12.91;44.17;96971.75;5134150;27;20055;-60
2022/12/25 09:48:59;;;;;;;4.25;1.60;;;;;;;13.03;43.76;96976.50;5134213;27;20092;-64
2022/12/25 09:51:29;;;;;;;4.43;1.48;;;;;;;12.95;43.44;96974.22;5133974;27;20549;-64
2022/12/25 09:54:03;;;;;;;2.55;1.60;;;;;;;13.03;43.45;96984.38;5133990;27;20126;-64
2022/12/25 09:56:33;;;;;;;6.88;1.88;;;;;;;13.07;43.72;96969.34;5133937;27;20043;-62
2022/12/25 09:59:00;;;;;;;2.60;1.17;;;;;;;12.97;43.54;96974.13;5133990;28;20503;-63
2022/12/25 10:01:38;;;;;;;3.78;1.75;;;;;;;12.65;43.72;96958.78;5133977;28;20050;-64
2022/12/25 10:04:30;;;;;;;3.25;1.30;;;;;;;12.68;44.47;96973.53;5133906;28;20043;-64
2022/12/25 10:07:10;;;;;;;2.58;1.38;;;;;;;12.66;43.88;96978.84;5133889;28;20050;-65
2022/12/25 10:09:51;;;;;;;2.00;1.10;;;;;;;12.70;44.19;96979.59;5133846;28;20043;-65
2022/12/25 10:12:37;;;;;;;2.35;1.25;;;;;;;12.73;44.14;96987.31;5133960;28;20043;-65
2022/12/25 10:15:19;;;;;;;2.60;1.52;;;;;;;12.83;43.67;96974.69;5133794;28;20039;-63
2022/12/25 10:18:12;;;;;;;2.72;1.60;;;;;;;12.86;43.76;96975.41;5133867;28;20146;-63
2022/12/25 10:20:48;;;;;;;2.47;1.38;;;;;;;12.82;43.85;96978.25;5133456;27;20546;-64
2022/12/25 10:23:23;;;;;;;3.22;1.60;;;;;;;12.89;44.38;96980.53;5137825;27;20477;-63
2022/12/25 10:25:52;;;;;;;4.20;1.33;;;;;;;12.83;43.17;96986.06;5137828;27;20051;-65
2022/12/25 10:28:27;;;;;;;1.92;1.50;;;;;;;12.69;42.60;96986.59;5137840;27;20074;-65
2022/12/25 10:30:56;;;;;;;2.75;1.20;;;;;;;12.57;42.98;96995.81;5137806;27;20074;-63
2022/12/25 10:33:23;;;;;;;2.58;1.40;;;;;;;12.53;42.71;96983.72;5137880;27;20051;-63
2022/12/25 10:35:52;;;;;;;2.67;1.27;;;;;;;12.62;43.19;96978.09;5137657;27;20051;-65
2022/12/25 10:38:23;;;;;;;2.53;1.50;;;;;;;12.74;44.13;96976.75;5137567;27;20472;-65
2022/12/25 10:40:59;;;;;;;;;;;;;;;12.84;43.60;96979.00;5137946;27;20043;-64
2022/12/25 10:43:32;;;;;;;3.42;1.48;;;;;;;12.73;43.74;96980.31;5137216;27;20334;-64
2022/12/25 10:46:00;;;;;;;2.53;1.45;;;;;;;12.77;43.39;96986.31;5137350;27;20050;-61
2022/12/25 10:48:30;;;;;;;2.08;1.40;;;;;;;12.88;42.78;96972.72;5137577;27;20054;-64
2022/12/25 10:50:59;;;;;;;3.30;1.40;;;;;;;12.86;42.18;96975.41;5137384;27;20462;-64
2022/12/25 10:53:29;;;;;;;2.17;1.58;;;;;;;12.81;42.76;96968.63;5137398;27;20045;-62
2022/12/25 10:56:00;;;;;;;2.50;1.33;;;;;;;12.83;42.24;96977.31;5137351;27;20047;-65
2022/12/25 10:58:28;;;;;;;2.72;1.50;;;;;;;12.86;43.34;96967.53;5137282;27;20046;-60
2022/12/25 11:00:58;;;;;;;2.90;1.40;;;;;;;12.88;42.86;96968.34;5137246;27;20377;-63
2022/12/25 11:03:29;;;;;;;4.68;1.52;;;;;;;13.01;43.73;96962.59;5137240;27;20047;-64
2022/12/25 11:05:56;;;;;;;3.75;1.52;;;;;;;13.17;42.43;96957.56;5137145;27;20096;-63
2022/12/25 11:08:28;;;;;;;3.92;1.33;;;;;;;13.14;41.72;96955.91;5137133;27;20039;-63
2022/12/25 11:10:57;;;;;;;2.53;1.30;;;;;;;13.15;42.62;96964.63;5137079;27;20039;-64
2022/12/25 11:13:28;;;;;;;2.38;1.30;;;;;;;13.12;42.47;96968.25;5137276;27;20111;-62
2022/12/25 11:16:04;;;;;;;4.05;1.48;;;;;;;13.10;41.47;96956.94;5137146;27;20056;-60
2022/12/25 11:18:35;;;;;;;3.00;1.30;;;;;;;12.92;42.35;96955.09;5136824;27;20047;-62
2022/12/25 11:21:14;;;;;;;4.57;2.38;;;;;;;12.86;43.38;96962.28;5136885;27;20058;-62
2022/12/25 11:23:48;;;;;;;3.40;1.60;;;;;;;12.94;42.79;96963.75;5136759;27;20051;-65
2022/12/25 11:26:19;;;;;;;2.72;1.60;;;;;;;12.98;41.99;96946.97;5136632;27;20096;-63
2022/12/25 11:28:51;;;;;;;2.95;1.42;;;;;;;12.91;42.25;96956.84;5136646;27;20083;-61
2022/12/25 11:31:21;;;;;;;4.18;1.65;;;;;;;13.01;42.19;96962.59;5135662;27;20401;-64
2022/12/25 11:33:55;;;;;;;1.83;1.33;;;;;;;12.98;41.72;96957.47;5136545;27;20492;-62
2022/12/25 11:36:37;;;;;;;2.80;1.58;;;;;;;12.93;41.61;96965.53;5136549;27;20051;-61
2022/12/25 11:39:20;;;;;;;3.13;1.30;;;;;;;12.88;41.37;96965.72;5136606;27;20043;-65
2022/12/25 11:41:50;;;;;;;3.03;1.80;;;;;;;12.80;42.01;96961.69;5136435;27;20039;-64
2022/12/25 11:44:36;;;;;;;2.53;1.48;;;;;;;12.80;42.68;96961.69;5136186;27;20066;-62
2022/12/25 11:47:11;;;;;;;2.42;1.30;;;;;;;12.78;42.21;96964.38;5136279;27;20055;-65
2022/12/25 11:49:45;;;;;;;3.55;1.35;;;;;;;12.84;42.86;96956.25;5136257;27;20541;-62
2022/12/25 11:52:16;;;;;;;4.65;1.88;;;;;;;12.72;42.37;96968.09;5136443;27;20121;-63
2022/12/25 11:54:55;;;;;;;2.05;1.40;;;;;;;12.67;41.46;96964.78;5136324;27;20487;-65
2022/12/25 11:57:26;;;;;;;3.75;1.63;;;;;;;12.61;41.46;96965.03;5136303;27;20043;-62
2022/12/25 12:00:02;;;;;;;3.15;2.30;;;;;;;12.67;41.71;96963.97;5136054;27;20086;-63
2022/12/25 12:02:39;;;;;;;4.22;2.03;;;;;;;12.64;41.84;96954.41;5135902;27;20051;-64
2022/12/25 12:05:17;;;;;;;3.13;1.50;;;;;;;12.58;41.78;96947.66;5136141;27;20051;-61
2022/12/25 12:08:01;;;;;;;12.73;7.88;;;;;;;12.48;42.97;96944.53;5135769;27;20447;-63
2022/12/25 12:10:37;;;;;;;7.05;3.85;;;;;;;12.37;42.18;96951.97;5135848;27;20051;-61
2022/12/25 12:13:27;;;;;;;3.72;2.30;;;;;;;12.42;41.82;96960.53;5135953;27;20178;-63
2022/12/25 12:15:56;;;;;;;5.13;2.80;;;;;;;12.41;42.18;96964.06;5136119;27;20043;-62
2022/12/25 12:18:30;;;;;;;6.43;2.15;;;;;;;12.48;42.05;96967.28;5135769;27;20055;-61
2022/12/25 12:21:00;;;;;;;3.22;1.85;;;;;;;12.50;41.88;96960.22;5135619;27;20104;-60
2022/12/25 12:23:29;;;;;;;4.88;2.45;;;;;;;12.42;42.60;96959.66;5135635;27;20507;-60
2022/12/25 12:25:58;;;;;;;5.15;2.70;;;;;;;12.42;42.23;96967.53;5135468;27;20047;-60
2022/12/25 12:28:29;;;;;;;6.38;3.63;;;;;;;12.41;42.22;96965.81;5135533;27;20104;-64
2022/12/25 12:31:00;;;;;;;;;;;;;;;12.35;42.29;96969.53;5135835;27;20082;-61
2022/12/25 12:33:32;;;;;;;6.55;4.25;;;;;;;12.40;41.65;96967.59;5135516;27;19930;-62
2022/12/25 12:36:05;;;;;;;3.40;2.13;;;;;;;12.42;41.88;96955.28;5135303;27;20048;-61
2022/12/25 12:38:34;;;;;;;4.95;2.28;;;;;;;12.43;42.00;96966.63;5135201;27;20096;-60
2022/12/25 12:41:06;;;;;;;2.50;1.13;;;;;;;12.44;41.33;96973.56;5135327;27;20051;-60
2022/12/25 12:43:38;;;;;;;2.80;1.33;;;;;;;12.52;40.48;96968.88;5134854;27;20047;-63
2022/12/25 12:46:13;;;;;;;1.65;0.90;;;;;;;12.57;40.79;96972.19;5135119;27;20047;-61
2022/12/25 12:48:43;;;;;;;1.38;1.27;;;;;;;12.49;41.13;96974.25;5135272;27;20492;-62
2022/12/25 12:51:13;;;;;;;2.92;1.48;;;;;;;12.53;41.25;96975.84;5135083;27;20054;-65
2022/12/25 12:53:43;;;;;;;2.28;1.15;;;;;;;12.53;41.21;96986.34;5135168;27;20081;-64
2022/12/25 12:56:17;;;;;;;3.85;1.42;;;;;;;12.49;41.55;96984.72;5135036;27;20071;-64
2022/12/25 12:58:49;;;;;;;2.40;1.40;;;;;;;12.53;41.46;96988.09;5134952;27;20050;-63
2022/12/25 13:01:37;;;;;;;2.55;1.20;;;;;;;12.58;40.67;97000.13;5134789;27;20129;-65
2022/12/25 13:04:32;;;;;;;2.30;1.20;;;;;;;12.51;41.19;96998.66;5134919;27;20058;-65
2022/12/25 13:07:13;;;;;;;1.55;1.10;;;;;;;12.48;40.47;96986.53;5134708;27;20057;-62
2022/12/25 13:09:57;;;;;;;1.80;1.10;;;;;;;12.45;40.72;97001.50;5134790;27;20100;-64
2022/12/25 13:12:27;;;;;;;4.13;1.00;;;;;;;12.38;41.03;97008.78;5134688;27;20066;-65
2022/12/25 13:14:54;;;;;;;2.85;1.38;;;;;;;12.33;41.20;97006.31;5134380;27;20073;-64
2022/12/25 13:17:24;;;;;;;3.70;1.08;;;;;;;12.24;40.96;97004.91;5134677;27;20054;-63
2022/12/25 13:19:56;;;;;;;1.77;1.13;;;;;;;12.19;41.99;97019.09;5134677;27;20492;-64
2022/12/25 13:22:25;;;;;;;3.03;1.35;;;;;;;12.11;42.60;97020.25;5134540;27;20047;-61
2022/12/25 13:24:58;;;;;;;2.23;1.30;;;;;;;12.06;41.85;97011.66;5134506;27;20492;-63
2022/12/25 13:27:29;;;;;;;2.30;1.10;;;;;;;11.99;42.22;97024.13;5134620;27;20093;-63
2022/12/25 13:29:57;;;;;;;1.60;1.27;;;;;;;11.95;42.29;97022.50;5134522;27;20062;-61
2022/12/25 13:32:28;;;;;;;2.67;1.10;;;;;;;11.92;42.48;97020.00;5134370;27;20075;-61
2022/12/25 13:34:56;;;;;;;1.45;1.30;;;;;;;11.87;43.17;97014.09;5134465;27;20059;-62
2022/12/25 13:37:25;;;;;;;2.30;1.35;;;;;;;11.84;43.50;97019.44;5134267;27;20062;-61
2022/12/25 13:39:57;;;;;;;2.08;1.05;;;;;;;11.81;43.26;97016.91;5134350;27;20043;-62
2022/12/25 13:42:31;;;;;;;1.98;1.30;;;;;;;11.77;43.28;97013.53;5134256;27;20051;-63
2022/12/25 13:45:00;;;;;;;3.13;1.15;;;;;;;11.73;43.45;97012.81;5134010;27;20457;-61